createdAt,value
2023-01-27T00:00:12.138Z,7.25
2023-01-27T00:02:39.622Z,8.88
2023-01-27T00:05:06.873Z,7.68
2023-01-27T00:07:33.829Z,9.35
2023-01-27T00:10:00.749Z,5.82
2023-01-27T00:12:46.206Z,4.75
2023-01-27T00:15:13.792Z,5.65
2023-01-27T00:17:40.836Z,7.50
2023-01-27T00:20:08.314Z,7.85
2023-01-27T00:22:54.048Z,4.32
2023-01-27T00:25:20.932Z,4.80
2023-01-27T00:27:47.785Z,4.40
2023-01-27T00:30:14.772Z,3.83
2023-01-27T00:33:00.094Z,6.10
2023-01-27T00:35:26.904Z,9.63
2023-01-27T00:37:53.717Z,6.35
2023-01-27T00:40:20.600Z,3.75
2023-01-27T00:42:47.429Z,5.35
2023-01-27T00:45:32.935Z,8.00
2023-01-27T00:47:59.749Z,5.95
2023-01-27T00:50:26.576Z,5.60
2023-01-27T00:52:53.435Z,4.47
2023-01-27T00:55:20.938Z,4.07
2023-01-27T00:57:47.758Z,5.05
2023-01-27T01:00:15.860Z,5.38
2023-01-27T01:02:42.950Z,8.70
2023-01-27T01:05:10.012Z,6.00
2023-01-27T01:07:36.825Z,9.02
2023-01-27T01:10:03.720Z,8.68
2023-01-27T01:12:30.536Z,10.48
2023-01-27T01:14:57.463Z,6.95
2023-01-27T01:17:24.245Z,7.13
2023-01-27T01:19:51.024Z,7.28
2023-01-27T01:22:17.815Z,6.43
2023-01-27T01:24:44.646Z,4.13
2023-01-27T01:27:11.408Z,4.00
2023-01-27T01:29:38.209Z,4.00
2023-01-27T01:32:05.236Z,7.63
2023-01-27T01:34:32.026Z,7.15
2023-01-27T01:36:58.821Z,4.82
2023-01-27T01:39:25.683Z,2.75
2023-01-27T01:41:52.462Z,5.43
2023-01-27T01:44:39.545Z,4.40
2023-01-27T01:47:06.351Z,4.30
2023-01-27T01:49:35.229Z,2.72
2023-01-27T01:52:05.516Z,6.10
2023-01-27T01:54:34.709Z,2.67
2023-01-27T01:57:05.041Z,5.80
2023-01-27T01:59:34.661Z,3.65
2023-01-27T02:02:03.515Z,7.03
2023-01-27T02:04:34.395Z,4.85
2023-01-27T02:07:05.414Z,4.25
2023-01-27T02:09:32.855Z,5.53
2023-01-27T02:12:00.502Z,5.68
2023-01-27T02:14:27.341Z,4.95
2023-01-27T02:16:54.797Z,7.47
2023-01-27T02:19:25.172Z,3.85
2023-01-27T02:21:52.989Z,2.45
2023-01-27T02:24:20.177Z,3.92
2023-01-27T02:26:47.066Z,2.30
2023-01-27T02:29:15.427Z,1.98
2023-01-27T02:31:42.512Z,2.47
2023-01-27T02:34:10.922Z,3.60
2023-01-27T02:36:43.667Z,2.38
2023-01-27T02:39:12.227Z,2.35
2023-01-27T02:41:43.586Z,3.45
2023-01-27T02:44:10.862Z,1.98
2023-01-27T02:46:37.791Z,3.30
2023-01-27T02:49:04.843Z,2.97
2023-01-27T02:51:31.858Z,2.90
2023-01-27T02:53:58.707Z,4.05
2023-01-27T02:56:25.549Z,2.63
2023-01-27T02:58:52.481Z,3.38
2023-01-27T03:01:19.401Z,5.55
2023-01-27T03:03:47.396Z,1.30
2023-01-27T03:06:14.877Z,2.17
2023-01-27T03:08:42.146Z,2.45
2023-01-27T03:11:09.254Z,2.05
2023-01-27T03:13:37.189Z,1.77
2023-01-27T03:16:23.438Z,2.72
2023-01-27T03:18:50.878Z,3.40
2023-01-27T03:21:18.263Z,3.05
2023-01-27T03:23:46.160Z,3.67
2023-01-27T03:26:12.926Z,4.32
2023-01-27T03:28:39.697Z,2.53
2023-01-27T03:31:08.126Z,4.03
2023-01-27T03:33:35.105Z,3.22
2023-01-27T03:36:20.750Z,1.58
2023-01-27T03:39:06.611Z,1.70
2023-01-27T03:41:52.370Z,2.53
2023-01-27T03:44:37.766Z,4.07
2023-01-27T03:47:04.584Z,4.47
2023-01-27T03:49:31.526Z,3.35
2023-01-27T03:51:59.081Z,4.45
2023-01-27T03:54:25.876Z,3.53
2023-01-27T03:56:52.672Z,4.30
2023-01-27T03:59:19.650Z,5.43
2023-01-27T04:01:47.095Z,3.92
2023-01-27T04:04:32.917Z,3.85
2023-01-27T04:07:02.984Z,2.58
2023-01-27T04:09:34.396Z,5.43
2023-01-27T04:12:02.675Z,4.25
2023-01-27T04:14:37.973Z,5.10
2023-01-27T04:17:06.161Z,3.72
2023-01-27T04:19:33.702Z,4.50
2023-01-27T04:22:01.354Z,6.60
2023-01-27T04:24:28.287Z,6.30
2023-01-27T04:27:05.551Z,3.25
2023-01-27T04:29:36.828Z,3.10
2023-01-27T04:32:06.109Z,5.35
2023-01-27T04:34:32.950Z,4.75
2023-01-27T04:37:00.054Z,3.42
2023-01-27T04:39:26.921Z,5.65
2023-01-27T04:41:53.770Z,5.70
2023-01-27T04:44:20.633Z,4.45
2023-01-27T04:46:47.776Z,5.25
2023-01-27T04:49:14.693Z,7.57
2023-01-27T04:51:41.462Z,6.40
2023-01-27T04:54:08.330Z,5.10
2023-01-27T04:56:36.243Z,4.63
2023-01-27T04:59:04.758Z,4.43
2023-01-27T05:01:31.604Z,6.20
2023-01-27T05:03:58.462Z,5.50
2023-01-27T05:06:25.774Z,5.75
2023-01-27T05:08:52.759Z,5.20
2023-01-27T05:11:19.657Z,6.10
2023-01-27T05:13:47.018Z,7.72
2023-01-27T05:16:15.146Z,6.78
2023-01-27T05:18:42.818Z,7.32
2023-01-27T05:21:12.412Z,7.57
2023-01-27T05:23:39.404Z,6.40
2023-01-27T05:26:11.348Z,8.75
2023-01-27T05:28:38.884Z,6.45
2023-01-27T05:31:08.182Z,5.53
2023-01-27T05:33:35.145Z,6.63
2023-01-27T05:36:02.876Z,8.05
2023-01-27T05:38:29.836Z,5.65
2023-01-27T05:40:57.766Z,6.40
2023-01-27T05:43:25.358Z,5.10
2023-01-27T05:45:52.231Z,7.18
2023-01-27T05:48:19.078Z,6.88
2023-01-27T05:50:53.752Z,6.43
2023-01-27T05:53:20.516Z,5.32
2023-01-27T05:55:47.343Z,8.02
2023-01-27T05:58:14.147Z,7.85
2023-01-27T06:00:40.960Z,8.25
2023-01-27T06:03:07.919Z,7.20
2023-01-27T06:05:34.903Z,7.43
2023-01-27T06:08:01.731Z,6.90
2023-01-27T06:10:28.586Z,8.02
2023-01-27T06:12:55.408Z,6.47
2023-01-27T06:15:22.195Z,7.68
2023-01-27T06:17:50.927Z,6.75
2023-01-27T06:20:18.854Z,7.55
2023-01-27T06:22:46.722Z,7.72
2023-01-27T06:25:13.812Z,8.00
2023-01-27T06:27:40.821Z,7.28
2023-01-27T06:30:09.276Z,5.60
2023-01-27T06:32:36.689Z,8.00
2023-01-27T06:35:03.972Z,5.47
2023-01-27T06:37:30.771Z,7.13
2023-01-27T06:39:57.552Z,6.43
2023-01-27T06:42:24.327Z,6.50
2023-01-27T06:44:51.149Z,9.43
2023-01-27T06:47:17.952Z,7.32
2023-01-27T06:49:44.744Z,4.50
2023-01-27T06:52:11.600Z,7.80
2023-01-27T06:54:38.581Z,5.63
2023-01-27T06:57:05.453Z,7.63
2023-01-27T06:59:32.281Z,4.03
2023-01-27T07:01:59.073Z,6.40
2023-01-27T07:04:25.963Z,7.32
2023-01-27T07:06:52.790Z,5.57
2023-01-27T07:09:19.638Z,4.90
2023-01-27T07:11:46.475Z,8.23
2023-01-27T07:14:13.410Z,4.70
2023-01-27T07:16:40.224Z,7.97
2023-01-27T07:19:07.089Z,7.32
2023-01-27T07:21:34.019Z,5.15
2023-01-27T07:24:00.824Z,7.82
2023-01-27T07:26:27.713Z,6.50
2023-01-27T07:28:55.606Z,6.60
2023-01-27T07:31:22.823Z,5.50
2023-01-27T07:33:49.738Z,5.93
2023-01-27T07:36:16.616Z,6.07
2023-01-27T07:38:43.446Z,11.55
2023-01-27T07:41:11.320Z,6.25
2023-01-27T07:43:38.499Z,6.80
2023-01-27T07:46:05.425Z,5.57
2023-01-27T07:48:32.271Z,4.80
2023-01-27T07:50:59.089Z,6.20
2023-01-27T07:53:25.884Z,5.05
2023-01-27T07:55:52.696Z,5.88
2023-01-27T07:58:19.636Z,7.88
2023-01-27T08:00:46.482Z,5.00
2023-01-27T08:03:20.972Z,6.78
2023-01-27T08:05:47.775Z,6.88
2023-01-27T08:08:14.611Z,5.93
2023-01-27T08:10:41.857Z,7.85
2023-01-27T08:13:08.705Z,7.95
2023-01-27T08:15:35.530Z,5.63
2023-01-27T08:18:02.459Z,7.55
2023-01-27T08:20:29.375Z,8.27
2023-01-27T08:22:56.249Z,5.90
2023-01-27T08:25:23.192Z,5.43
2023-01-27T08:27:50.798Z,4.75
2023-01-27T08:30:18.371Z,5.10
2023-01-27T08:32:45.445Z,7.45
2023-01-27T08:35:12.329Z,10.75
2023-01-27T08:37:39.186Z,3.83
2023-01-27T08:40:06.154Z,5.53
2023-01-27T08:42:32.943Z,5.93
2023-01-27T08:45:00.615Z,6.30
2023-01-27T08:47:27.463Z,5.28
2023-01-27T08:49:54.491Z,8.20
2023-01-27T08:52:23.000Z,7.28
2023-01-27T08:54:49.838Z,5.00
2023-01-27T08:57:16.632Z,6.28
2023-01-27T08:59:46.160Z,5.57
2023-01-27T09:02:13.208Z,5.65
2023-01-27T09:04:43.898Z,6.32
2023-01-27T09:07:11.103Z,5.20
2023-01-27T09:09:41.244Z,6.82
2023-01-27T09:12:12.012Z,3.63
2023-01-27T09:14:44.112Z,7.43
2023-01-27T09:17:11.787Z,4.95
2023-01-27T09:19:47.654Z,6.43
2023-01-27T09:22:17.392Z,7.63
2023-01-27T09:24:44.700Z,6.93
2023-01-27T09:27:19.219Z,6.00
2023-01-27T09:29:55.454Z,6.90
2023-01-27T09:32:27.794Z,5.97
2023-01-27T09:34:55.033Z,5.53
2023-01-27T09:37:21.906Z,12.43
2023-01-27T09:40:03.276Z,11.93
2023-01-27T09:43:02.472Z,6.40
2023-01-27T09:45:32.595Z,6.57
2023-01-27T09:48:20.561Z,12.60
2023-01-27T09:51:13.435Z,11.52
2023-01-27T09:54:02.098Z,6.05
2023-01-27T09:56:50.757Z,6.63
2023-01-27T09:59:28.098Z,6.88
2023-01-27T10:01:57.846Z,5.43
2023-01-27T10:04:28.255Z,5.53
2023-01-27T10:06:55.095Z,6.18
2023-01-27T10:09:35.778Z,7.53
2023-01-27T10:12:08.464Z,8.52
2023-01-27T10:14:35.260Z,5.78
2023-01-27T10:17:20.893Z,5.80
2023-01-27T10:20:03.311Z,7.00
2023-01-27T10:22:46.895Z,6.05
2023-01-27T10:25:29.075Z,5.43
2023-01-27T10:27:57.772Z,6.20
2023-01-27T10:30:37.676Z,5.68
2023-01-27T10:33:21.156Z,6.20
2023-01-27T10:35:56.533Z,5.15
2023-01-27T10:38:56.794Z,6.40
2023-01-27T10:41:34.519Z,4.00
2023-01-27T10:44:10.469Z,5.93
2023-01-27T10:46:43.499Z,10.07
2023-01-27T10:49:14.990Z,4.78
2023-01-27T10:51:55.223Z,6.72
2023-01-27T10:54:28.498Z,4.60
2023-01-27T10:57:18.877Z,5.47
2023-01-27T11:00:17.384Z,6.80
2023-01-27T11:02:45.788Z,5.88
2023-01-27T11:05:17.424Z,4.88
2023-01-27T11:07:52.203Z,3.15
2023-01-27T11:10:27.862Z,4.97
2023-01-27T11:12:59.554Z,6.70
2023-01-27T11:17:58.640Z,6.10
2023-01-27T11:20:42.889Z,6.43
2023-01-27T11:25:48.515Z,3.45
2023-01-27T11:28:22.361Z,4.05
2023-01-27T11:31:18.971Z,4.30
2023-01-27T11:33:54.914Z,4.60
2023-01-27T11:36:22.061Z,6.53
2023-01-27T11:38:51.986Z,3.83
2023-01-27T11:41:22.238Z,5.15
2023-01-27T11:43:52.270Z,3.50
2023-01-27T11:46:24.509Z,5.50
2023-01-27T11:48:56.653Z,3.95
2023-01-27T11:51:30.177Z,4.30
2023-01-27T11:54:05.996Z,7.57
2023-01-27T11:56:37.309Z,2.42
2023-01-27T11:59:14.137Z,4.55
2023-01-27T12:01:50.959Z,3.33
2023-01-27T12:04:20.590Z,3.88
2023-01-27T12:06:52.021Z,3.92
2023-01-27T12:09:38.420Z,5.15
2023-01-27T12:12:14.481Z,4.70
2023-01-27T12:14:55.224Z,5.38
2023-01-27T12:17:30.696Z,4.38
2023-01-27T12:20:04.770Z,4.30
2023-01-27T12:22:33.818Z,3.47
2023-01-27T12:25:11.491Z,1.98
2023-01-27T12:27:41.497Z,7.63
2023-01-27T12:30:20.626Z,4.25
2023-01-27T12:32:52.574Z,5.38
2023-01-27T12:35:28.996Z,3.65
2023-01-27T12:38:24.481Z,3.72
2023-01-27T12:40:58.527Z,5.35
2023-01-27T12:43:28.144Z,3.85
2023-01-27T12:46:04.374Z,2.88
2023-01-27T12:48:33.300Z,3.53
2023-01-27T12:51:17.712Z,2.00
2023-01-27T12:53:46.789Z,6.32
2023-01-27T12:56:17.002Z,4.18
2023-01-27T12:58:55.728Z,2.60
2023-01-27T13:01:30.415Z,3.90
2023-01-27T13:04:06.072Z,4.97
2023-01-27T13:06:42.637Z,2.83
2023-01-27T13:09:37.622Z,4.18
2023-01-27T13:12:20.854Z,2.03
2023-01-27T13:14:54.746Z,4.30
2023-01-27T13:20:36.857Z,5.18
2023-01-27T13:23:03.652Z,4.72
2023-01-27T13:25:40.355Z,2.47
2023-01-27T13:28:13.901Z,5.22
2023-01-27T13:30:46.429Z,2.70
2023-01-27T13:33:41.186Z,4.25
2023-01-27T13:36:31.121Z,2.63
2023-01-27T13:39:15.470Z,3.65
2023-01-27T13:42:05.856Z,3.28
2023-01-27T13:47:07.145Z,3.38
2023-01-27T13:49:43.372Z,3.83
2023-01-27T13:52:11.150Z,2.92
2023-01-27T13:54:43.186Z,3.13
2023-01-27T13:57:16.143Z,3.65
2023-01-27T13:59:55.532Z,4.30
2023-01-27T14:02:40.064Z,4.45
2023-01-27T14:05:32.314Z,3.85
2023-01-27T14:08:08.307Z,2.92
2023-01-27T14:10:40.559Z,2.72
2023-01-27T14:13:19.405Z,1.38
2023-01-27T14:15:52.735Z,3.63
2023-01-27T14:18:22.734Z,4.55
2023-01-27T14:20:54.635Z,7.28
2023-01-27T14:23:41.771Z,4.53
2023-01-27T14:26:13.649Z,3.20
2023-01-27T14:28:55.302Z,5.68
2023-01-27T14:31:46.840Z,6.78
2023-01-27T14:34:44.020Z,6.47
2023-01-27T14:37:16.926Z,6.70
2023-01-27T14:39:59.069Z,6.35
2023-01-27T14:42:26.187Z,4.05
2023-01-27T14:45:17.690Z,6.20
2023-01-27T14:47:54.010Z,5.60
2023-01-27T14:50:33.687Z,6.72
2023-01-27T14:53:13.913Z,7.22
2023-01-27T14:55:46.670Z,4.93
2023-01-27T14:58:36.592Z,5.50
2023-01-27T15:01:26.792Z,7.00
2023-01-27T15:04:15.724Z,5.80
2023-01-27T15:06:52.370Z,5.40
2023-01-27T15:09:39.064Z,5.18
2023-01-27T15:12:15.408Z,5.22
2023-01-27T15:15:05.711Z,4.53
2023-01-27T15:17:59.174Z,15.57
2023-01-27T15:20:52.686Z,4.72
2023-01-27T15:23:30.095Z,7.00
2023-01-27T15:26:00.535Z,4.93
2023-01-27T15:28:39.345Z,7.47
2023-01-27T15:31:21.789Z,3.05
2023-01-27T15:33:53.292Z,5.22
2023-01-27T15:36:37.216Z,6.13
2023-01-27T15:39:13.808Z,5.68
2023-01-27T15:41:59.326Z,4.28
2023-01-27T15:44:30.963Z,3.47
2023-01-27T15:49:36.724Z,4.70
2023-01-27T15:52:16.543Z,4.03
2023-01-27T15:54:54.187Z,5.30
2023-01-27T15:57:26.297Z,3.58
2023-01-27T15:59:59.146Z,3.20
2023-01-27T16:02:32.308Z,2.00
2023-01-27T16:05:07.912Z,7.30
2023-01-27T16:07:37.188Z,5.22
2023-01-27T16:12:51.595Z,7.07
2023-01-27T16:15:24.740Z,7.88
2023-01-27T16:18:06.399Z,7.50
2023-01-27T16:20:42.462Z,9.13
2023-01-27T16:23:14.591Z,7.32
2023-01-27T16:25:54.850Z,5.72
2023-01-27T16:28:24.676Z,5.05
2023-01-27T16:31:01.139Z,7.28
2023-01-27T16:33:32.581Z,9.77
2023-01-27T16:36:07.758Z,6.32
2023-01-27T16:38:38.842Z,9.15
2023-01-27T16:41:22.594Z,5.25
2023-01-27T16:43:51.854Z,4.10
2023-01-27T16:46:31.402Z,3.97
2023-01-27T16:48:58.514Z,5.90
2023-01-27T16:51:30.856Z,4.22
2023-01-27T16:54:09.420Z,10.07
2023-01-27T16:56:39.934Z,5.72
2023-01-27T16:59:13.484Z,6.80
2023-01-27T17:01:42.660Z,4.88
2023-01-27T17:04:20.130Z,6.57
2023-01-27T17:06:51.378Z,8.15
2023-01-27T17:09:32.241Z,4.57
2023-01-27T17:12:01.339Z,5.72
2023-01-27T17:14:41.335Z,4.97
2023-01-27T17:17:18.085Z,6.85
2023-01-27T17:19:50.863Z,4.13
2023-01-27T17:22:26.154Z,11.70
2023-01-27T17:24:54.765Z,5.53
2023-01-27T17:27:27.291Z,6.32
2023-01-27T17:30:01.106Z,10.00
2023-01-27T17:32:34.860Z,15.70
2023-01-27T17:35:06.297Z,10.77
2023-01-27T17:37:33.223Z,5.82
2023-01-27T17:40:01.458Z,12.02
2023-01-27T17:42:33.941Z,6.65
2023-01-27T17:45:19.630Z,7.65
2023-01-27T17:47:47.127Z,13.10
2023-01-27T17:50:23.047Z,11.27
2023-01-27T17:52:52.840Z,8.93
2023-01-27T17:55:25.102Z,8.88
2023-01-27T17:58:04.762Z,8.15
2023-01-27T18:00:38.600Z,7.53
2023-01-27T18:03:11.545Z,9.45
2023-01-27T18:05:38.726Z,6.07
2023-01-27T18:08:06.704Z,8.23
2023-01-27T18:10:37.230Z,8.25
2023-01-27T18:13:33.437Z,7.93
2023-01-27T18:16:01.686Z,7.65
2023-01-27T18:18:29.552Z,6.10
2023-01-27T18:20:59.370Z,8.05
2023-01-27T18:23:27.980Z,8.65
2023-01-27T18:26:07.163Z,7.95
2023-01-27T18:28:36.081Z,8.88
2023-01-27T18:31:03.054Z,7.05
2023-01-27T18:33:32.520Z,9.23
2023-01-27T18:36:00.101Z,8.80
2023-01-27T18:38:35.982Z,6.55
2023-01-27T18:41:10.436Z,6.03
2023-01-27T18:43:37.602Z,9.70
2023-01-27T18:46:09.298Z,6.60
2023-01-27T18:48:38.365Z,10.00
2023-01-27T18:51:12.283Z,11.13
2023-01-27T18:53:39.132Z,8.48
2023-01-27T18:56:07.839Z,9.73
2023-01-27T18:58:35.235Z,12.50
2023-01-27T19:01:02.625Z,7.97
2023-01-27T19:03:30.774Z,10.82
2023-01-27T19:05:57.726Z,11.15
2023-01-27T19:08:25.053Z,17.02
2023-01-27T19:10:54.317Z,13.35
2023-01-27T19:13:21.331Z,20.65
2023-01-27T19:15:50.352Z,12.35
2023-01-27T19:18:26.605Z,14.45
2023-01-27T19:20:54.024Z,11.02
2023-01-27T19:23:22.081Z,11.35
2023-01-27T19:25:56.450Z,14.70
2023-01-27T19:28:32.229Z,13.55
2023-01-27T19:31:12.879Z,18.38
2023-01-27T19:33:48.592Z,13.68
2023-01-27T19:36:23.131Z,22.40
2023-01-27T19:41:41.339Z,13.93
2023-01-27T19:44:11.748Z,12.10
2023-01-27T19:46:49.528Z,20.83
2023-01-27T19:49:23.993Z,10.45
2023-01-27T19:51:57.756Z,13.57
2023-01-27T19:57:23.384Z,11.77
2023-01-27T20:02:33.233Z,13.98
2023-01-27T20:05:02.756Z,11.60
2023-01-27T20:07:29.594Z,7.68
2023-01-27T20:09:56.429Z,12.45
2023-01-27T20:12:23.203Z,13.23
2023-01-27T20:14:49.991Z,7.72
2023-01-27T20:17:16.803Z,10.23
2023-01-27T20:19:44.406Z,9.68
2023-01-27T20:22:12.467Z,12.00
2023-01-27T20:24:39.328Z,9.27
2023-01-27T20:27:06.127Z,14.32
2023-01-27T20:29:35.453Z,8.73
2023-01-27T20:32:02.339Z,12.05
2023-01-27T20:34:29.192Z,7.85
2023-01-27T20:36:56.115Z,10.60
2023-01-27T20:39:22.955Z,9.00
2023-01-27T20:41:50.324Z,8.75
2023-01-27T20:44:18.265Z,7.32
2023-01-27T20:46:45.129Z,10.00
2023-01-27T20:49:11.950Z,9.85
2023-01-27T20:51:38.797Z,9.90
2023-01-27T20:54:05.866Z,13.98
2023-01-27T20:56:32.706Z,9.95
2023-01-27T20:59:01.603Z,10.43
2023-01-27T21:01:28.503Z,7.18
2023-01-27T21:03:55.430Z,7.05
2023-01-27T21:06:22.310Z,7.57
2023-01-27T21:08:49.552Z,8.70
2023-01-27T21:11:18.550Z,10.52
2023-01-27T21:13:45.806Z,9.20
2023-01-27T21:16:13.048Z,8.50
2023-01-27T21:18:39.971Z,8.23
2023-01-27T21:21:06.846Z,10.93
2023-01-27T21:23:34.468Z,8.98
2023-01-27T21:26:05.281Z,8.38
2023-01-27T21:28:32.638Z,7.90
2023-01-27T21:31:04.583Z,10.02
2023-01-27T21:33:31.519Z,11.40
2023-01-27T21:35:58.364Z,7.68
2023-01-27T21:38:25.131Z,12.63
2023-01-27T21:40:53.099Z,12.85
2023-01-27T21:43:38.773Z,9.70
2023-01-27T21:46:05.554Z,9.35
2023-01-27T21:48:32.364Z,14.25
2023-01-27T21:50:59.205Z,9.77
2023-01-27T21:53:26.731Z,10.63
2023-01-27T21:55:53.534Z,13.52
2023-01-27T21:58:20.413Z,14.45
2023-01-27T22:00:47.249Z,8.68
2023-01-27T22:03:14.142Z,8.25
2023-01-27T22:05:40.995Z,9.52
2023-01-27T22:08:07.900Z,9.98
2023-01-27T22:10:34.837Z,10.00
2023-01-27T22:13:05.686Z,11.55
2023-01-27T22:15:32.942Z,9.55
2023-01-27T22:17:59.919Z,12.38
2023-01-27T22:20:27.254Z,7.97
2023-01-27T22:22:54.197Z,10.95
2023-01-27T22:25:21.134Z,10.02
2023-01-27T22:27:47.968Z,11.45
2023-01-27T22:30:16.569Z,9.18
2023-01-27T22:32:43.535Z,12.45
2023-01-27T22:35:11.986Z,8.93
2023-01-27T22:37:39.166Z,7.88
2023-01-27T22:40:06.614Z,9.45
2023-01-27T22:42:33.468Z,8.35
2023-01-27T22:45:00.358Z,9.35
2023-01-27T22:47:27.241Z,9.02
2023-01-27T22:49:54.074Z,9.88
2023-01-27T22:52:20.870Z,9.63
2023-01-27T22:54:47.700Z,8.00
2023-01-27T22:57:14.512Z,7.90
2023-01-27T22:59:41.328Z,9.27
2023-01-27T23:02:08.165Z,10.85
2023-01-27T23:04:35.317Z,8.23
2023-01-27T23:07:02.157Z,10.10
2023-01-27T23:09:28.975Z,9.63
2023-01-27T23:11:56.535Z,9.60
2023-01-27T23:14:23.378Z,12.13
2023-01-27T23:16:52.971Z,15.35
2023-01-27T23:19:21.939Z,11.27
2023-01-27T23:21:48.764Z,9.65
2023-01-27T23:24:16.055Z,10.23
2023-01-27T23:26:42.862Z,11.18
2023-01-27T23:29:23.079Z,7.95
2023-01-27T23:31:51.630Z,9.20
2023-01-27T23:34:18.536Z,11.88
2023-01-27T23:36:45.459Z,8.13
2023-01-27T23:39:15.917Z,7.70
2023-01-27T23:41:42.732Z,8.80
2023-01-27T23:44:10.764Z,12.32
2023-01-27T23:46:37.534Z,9.15
2023-01-27T23:49:04.539Z,10.30
2023-01-27T23:51:31.825Z,12.18
2023-01-27T23:53:58.703Z,8.80
2023-01-27T23:56:25.548Z,9.68
2023-01-27T23:58:52.422Z,11.23
